Time;durP1;ratioP1;P1;durP2;ratioP2;P2;SDS_P1;SDS_P2;PMS_P1;PMS_P2;Temp;Humidity;BMP_temperature;BMP_pressure;BME280_temperature;BME280_humidity;BME280_pressure;Samples;Min_cycle;Max_cycle;Signal;HPM_P1;HPM_P2
2023/09/30 00:01:23;;;;;;;15.32;4.70;;;;;;;;;;4991026;28;92959;-61
2023/09/30 00:03:49;;;;;;;11.43;4.13;;;;;;;;;;4994061;28;92636;-60
2023/09/30 00:06:16;;;;;;;13.55;3.95;;;;;;;;;;4992088;28;93195;-59
2023/09/30 00:08:43;;;;;;;11.18;4.50;;;;;;;;;;4993215;28;93583;-60
2023/09/30 00:11:09;;;;;;;19.35;5.28;;;;;;;;;;4994109;28;92465;-60
2023/09/30 00:13:36;;;;;;;15.85;4.00;;;;;;;;;;4991804;28;93212;-60
2023/09/30 00:16:02;;;;;;;14.88;4.57;;;;;;;;;;4990990;28;95119;-60
2023/09/30 00:18:28;;;;;;;17.83;4.30;;;;;;;;;;4992232;28;95909;-59
2023/09/30 00:20:55;;;;;;;12.10;4.28;;;;;;;;;;4991741;28;93486;-60
2023/09/30 00:23:21;;;;;;;16.85;4.60;;;;;;;;;;4992981;28;92408;-60
2023/09/30 00:25:49;;;;;;;14.68;5.18;;;;;;;;;;4992659;28;92381;-61
2023/09/30 00:28:16;;;;;;;14.90;5.20;;;;;;;;;;4991002;28;93520;-60
2023/09/30 00:30:45;;;;;;;12.40;4.97;;;;;;;;;;4991629;28;92654;-60
2023/09/30 00:33:12;;;;;;;18.30;4.97;;;;;;;;;;4996032;28;93191;-60
2023/09/30 00:35:38;;;;;;;15.85;4.78;;;;;;;;;;4989562;28;93149;-60
2023/09/30 00:38:05;;;;;;;15.52;4.88;;;;;;;;;;4992081;28;92931;-60
2023/09/30 00:40:31;;;;;;;14.32;5.65;;;;;;;;;;4990452;28;97358;-60
2023/09/30 00:42:58;;;;;;;20.33;6.13;;;;;;;;;;4998454;28;92415;-60
2023/09/30 00:45:24;;;;;;;17.33;6.05;;;;;;;;;;4992120;28;94334;-60
2023/09/30 00:47:51;;;;;;;18.10;5.70;;;;;;;;;;4992460;28;93341;-60
2023/09/30 00:50:19;;;;;;;20.08;6.03;;;;;;;;;;4995463;28;94099;-59
2023/09/30 00:52:45;;;;;;;16.38;5.40;;;;;;;;;;4995342;28;92569;-60
2023/09/30 00:55:12;;;;;;;18.55;5.95;;;;;;;;;;4987672;28;93385;-60
2023/09/30 00:57:39;;;;;;;20.27;6.10;;;;;;;;;;4994156;28;93200;-61
2023/09/30 01:00:06;;;;;;;16.50;5.97;;;;;;;;;;4993926;28;94332;-61
2023/09/30 01:02:34;;;;;;;21.70;6.82;;;;;;;;;;4992927;28;92966;-61
2023/09/30 01:05:01;;;;;;;22.42;6.78;;;;;;;;;;4986773;28;95025;-60
2023/09/30 01:07:27;;;;;;;15.38;6.57;;;;;;;;;;4992037;28;93394;-60
2023/09/30 01:09:54;;;;;;;18.70;6.47;;;;;;;;;;4994308;28;92589;-60
2023/09/30 01:12:20;;;;;;;17.50;5.57;;;;;;;;;;4989311;28;92837;-60
2023/09/30 01:14:46;;;;;;;16.08;5.78;;;;;;;;;;4992739;28;94440;-60
2023/09/30 01:17:13;;;;;;;15.95;6.10;;;;;;;;;;4997765;28;92976;-60
2023/09/30 01:19:42;;;;;;;17.42;5.40;;;;;;;;;;4990691;28;94362;-60
2023/09/30 01:22:09;;;;;;;23.65;6.85;;;;;;;;;;4990870;28;91825;-60
2023/09/30 01:24:40;;;;;;;17.27;6.47;;;;;;;;;;4995131;28;92417;-62
2023/09/30 01:27:06;;;;;;;;;;;;;;;;;;4986987;28;94549;-60
2023/09/30 01:29:33;;;;;;;19.88;7.47;;;;;;;;;;4992160;28;118566;-60
2023/09/30 01:32:00;;;;;;;21.63;6.60;;;;;;;;;;4993253;28;95542;-60
2023/09/30 01:34:27;;;;;;;13.77;6.13;;;;;;;;;;4992353;28;93389;-61
2023/09/30 01:36:53;;;;;;;17.05;7.50;;;;;;;;;;4997550;28;93295;-60
2023/09/30 01:39:20;;;;;;;16.42;6.40;;;;;;;;;;4992056;28;94158;-60
2023/09/30 01:41:46;;;;;;;20.15;6.80;;;;;;;;;;4990608;28;92651;-60
2023/09/30 01:44:12;;;;;;;22.40;6.97;;;;;;;;;;4991877;28;93124;-60
2023/09/30 01:46:39;;;;;;;19.00;7.28;;;;;;;;;;4993790;28;93434;-60
2023/09/30 01:49:05;;;;;;;16.80;6.72;;;;;;;;;;4994446;28;92971;-60
2023/09/30 01:51:32;;;;;;;21.85;7.55;;;;;;;;;;4993004;28;93471;-59
2023/09/30 01:53:58;;;;;;;17.85;7.32;;;;;;;;;;4991651;28;95853;-60
2023/09/30 01:56:25;;;;;;;21.10;7.40;;;;;;;;;;4995661;28;92724;-60
2023/09/30 01:58:51;;;;;;;18.40;7.25;;;;;;;;;;4997128;28;92374;-61
2023/09/30 02:01:18;;;;;;;19.40;7.47;;;;;;;;;;4994301;28;92530;-60
2023/09/30 02:03:44;;;;;;;19.27;6.78;;;;;;;;;;4992028;28;93214;-60
2023/09/30 02:06:11;;;;;;;15.32;7.68;;;;;;;;;;4996766;28;93767;-59
2023/09/30 02:08:37;;;;;;;17.75;7.40;;;;;;;;;;4994648;28;92580;-59
2023/09/30 02:11:05;;;;;;;19.58;7.47;;;;;;;;;;4992324;28;92198;-59
2023/09/30 02:13:33;;;;;;;12.75;6.93;;;;;;;;;;4994117;28;93412;-59
2023/09/30 02:15:59;;;;;;;19.85;7.18;;;;;;;;;;4994543;28;92444;-60
2023/09/30 02:18:26;;;;;;;19.27;7.68;;;;;;;;;;4993424;28;95055;-60
2023/09/30 02:20:53;;;;;;;17.65;7.32;;;;;;;;;;4997541;28;94531;-60
2023/09/30 02:23:21;;;;;;;25.23;7.43;;;;;;;;;;4993855;28;93154;-61
2023/09/30 02:25:47;;;;;;;18.50;7.13;;;;;;;;;;4994111;28;93414;-60
2023/09/30 02:28:13;;;;;;;18.40;6.85;;;;;;;;;;4993913;28;92474;-60
2023/09/30 02:30:40;;;;;;;16.42;7.22;;;;;;;;;;4991889;28;93077;-60
2023/09/30 02:33:07;;;;;;;14.88;6.97;;;;;;;;;;4992451;28;93419;-64
2023/09/30 02:35:33;;;;;;;17.23;6.72;;;;;;;;;;4993954;28;91754;-63
2023/09/30 02:38:00;;;;;;;19.48;7.05;;;;;;;;;;4989429;28;92463;-63
2023/09/30 02:40:26;;;;;;;19.35;7.63;;;;;;;;;;4992628;28;95299;-62
2023/09/30 02:42:53;;;;;;;14.70;7.18;;;;;;;;;;4994851;28;95616;-64
2023/09/30 02:45:19;;;;;;;17.05;7.10;;;;;;;;;;4991964;28;93787;-63
2023/09/30 02:47:47;;;;;;;14.23;6.50;;;;;;;;;;4987028;28;92558;-64
2023/09/30 02:50:16;;;;;;;15.65;7.10;;;;;;;;;;4987365;28;92958;-64
2023/09/30 02:52:42;;;;;;;18.65;7.50;;;;;;;;;;4990233;28;93474;-63
2023/09/30 02:55:09;;;;;;;16.30;7.57;;;;;;;;;;4993587;28;92837;-64
2023/09/30 02:57:35;;;;;;;17.55;7.80;;;;;;;;;;4992539;28;93287;-63
2023/09/30 03:00:12;;;;;;;16.83;8.10;;;;;;;;;;4990410;28;92508;-62
2023/09/30 03:02:38;;;;;;;14.80;7.55;;;;;;;;;;4989676;28;92582;-62
2023/09/30 03:05:06;;;;;;;15.20;8.63;;;;;;;;;;4994863;28;94215;-62
2023/09/30 03:07:33;;;;;;;17.73;7.82;;;;;;;;;;4990058;28;95215;-62
2023/09/30 03:10:04;;;;;;;17.42;8.20;;;;;;;;;;4987426;28;95374;-62
2023/09/30 03:12:31;;;;;;;17.23;8.55;;;;;;;;;;4990335;28;94124;-62
2023/09/30 03:14:58;;;;;;;15.00;8.13;;;;;;;;;;4990948;28;92900;-63
2023/09/30 03:17:25;;;;;;;14.60;8.55;;;;;;;;;;4990701;28;93125;-63
2023/09/30 03:19:52;;;;;;;18.42;9.30;;;;;;;;;;4993014;28;93399;-62
2023/09/30 03:22:19;;;;;;;20.42;8.38;;;;;;;;;;4993541;28;92464;-62
2023/09/30 03:24:45;;;;;;;26.17;10.02;;;;;;;;;;4993302;28;92150;-62
2023/09/30 03:27:11;;;;;;;18.48;8.55;;;;;;;;;;4991402;28;93134;-63
2023/09/30 03:29:38;;;;;;;19.27;9.02;;;;;;;;;;4991827;28;94104;-62
2023/09/30 03:32:05;;;;;;;27.20;9.82;;;;;;;;;;4990496;28;96948;-64
2023/09/30 03:34:31;;;;;;;22.85;9.38;;;;;;;;;;4988571;28;94083;-61
2023/09/30 03:36:58;;;;;;;15.32;8.95;;;;;;;;;;4991269;28;93176;-62
2023/09/30 03:39:27;;;;;;;20.10;9.55;;;;;;;;;;4988590;28;93519;-62
2023/09/30 03:41:59;;;;;;;20.88;9.93;;;;;;;;;;4990509;28;93227;-62
2023/09/30 03:44:25;;;;;;;17.33;9.63;;;;;;;;;;4986643;28;93492;-65
2023/09/30 03:46:52;;;;;;;20.73;9.70;;;;;;;;;;4987201;28;94330;-66
2023/09/30 03:49:22;;;;;;;22.52;9.35;;;;;;;;;;4991462;28;93814;-65
2023/09/30 03:51:50;;;;;;;20.10;10.15;;;;;;;;;;4992859;28;93398;-66
2023/09/30 03:54:17;;;;;;;25.40;10.88;;;;;;;;;;4986839;28;92951;-65
2023/09/30 03:56:45;;;;;;;22.45;10.23;;;;;;;;;;4987897;28;95664;-65
2023/09/30 03:59:11;;;;;;;20.60;9.27;;;;;;;;;;4992637;28;94410;-65
2023/09/30 04:01:41;;;;;;;21.42;10.75;;;;;;;;;;4990232;28;92474;-65
2023/09/30 04:04:09;;;;;;;20.20;9.77;;;;;;;;;;4990408;28;93450;-65
2023/09/30 04:06:38;;;;;;;22.45;11.65;;;;;;;;;;4992295;28;93616;-65
2023/09/30 04:09:09;;;;;;;22.50;11.05;;;;;;;;;;4995139;28;92448;-65
2023/09/30 04:11:37;;;;;;;18.77;11.43;;;;;;;;;;4989067;28;93570;-65
2023/09/30 04:14:07;;;;;;;22.45;11.30;;;;;;;;;;4991022;28;91967;-66
2023/09/30 04:16:34;;;;;;;23.23;11.50;;;;;;;;;;4992183;28;92399;-65
2023/09/30 04:19:01;;;;;;;19.30;11.60;;;;;;;;;;4993333;28;93621;-65
2023/09/30 04:21:29;;;;;;;30.33;11.80;;;;;;;;;;4989272;28;94997;-65
2023/09/30 04:23:57;;;;;;;18.45;11.57;;;;;;;;;;4986708;28;95742;-65
2023/09/30 04:26:25;;;;;;;23.23;11.13;;;;;;;;;;4991015;28;94084;-65
2023/09/30 04:28:51;;;;;;;25.73;11.55;;;;;;;;;;4988509;28;92433;-65
2023/09/30 04:31:18;;;;;;;18.92;12.07;;;;;;;;;;4990233;28;93936;-65
2023/09/30 04:33:45;;;;;;;24.05;11.57;;;;;;;;;;4987894;28;92707;-66
2023/09/30 04:36:13;;;;;;;23.35;12.40;;;;;;;;;;4990984;28;93275;-66
2023/09/30 04:38:40;;;;;;;27.15;13.15;;;;;;;;;;4990471;28;93186;-66
2023/09/30 04:41:09;;;;;;;20.00;12.48;;;;;;;;;;4990755;28;92493;-66
2023/09/30 04:43:38;;;;;;;25.58;11.90;;;;;;;;;;4989309;28;93202;-66
2023/09/30 04:46:07;;;;;;;21.55;11.70;;;;;;;;;;4982073;28;96798;-65
2023/09/30 04:48:33;;;;;;;31.98;12.20;;;;;;;;;;4988820;28;92524;-66
2023/09/30 04:51:00;;;;;;;24.50;12.48;;;;;;;;;;4991393;28;93264;-66
2023/09/30 04:53:26;;;;;;;26.42;12.45;;;;;;;;;;4994382;28;93449;-65
2023/09/30 04:55:53;;;;;;;30.15;13.13;;;;;;;;;;4991204;28;93345;-66
2023/09/30 04:58:19;;;;;;;24.83;12.43;;;;;;;;;;4992079;28;93383;-66
2023/09/30 05:00:45;;;;;;;24.58;12.48;;;;;;;;;;4991661;28;92938;-66
2023/09/30 05:03:12;;;;;;;25.33;12.73;;;;;;;;;;4991585;28;93279;-66
2023/09/30 05:05:38;;;;;;;22.60;12.80;;;;;;;;;;4992059;28;93480;-65
2023/09/30 05:08:06;;;;;;;22.77;11.93;;;;;;;;;;4991291;28;92529;-66
2023/09/30 05:10:33;;;;;;;24.25;13.57;;;;;;;;;;4989738;28;94733;-65
2023/09/30 05:12:59;;;;;;;24.08;12.98;;;;;;;;;;4991071;28;93371;-66
2023/09/30 05:15:26;;;;;;;20.52;12.23;;;;;;;;;;4994296;28;92723;-65
2023/09/30 05:17:52;;;;;;;22.35;13.27;;;;;;;;;;4991455;28;93351;-66
2023/09/30 05:20:19;;;;;;;28.23;12.90;;;;;;;;;;4991225;28;92472;-66
2023/09/30 05:22:46;;;;;;;26.50;13.40;;;;;;;;;;4994398;28;94262;-66
2023/09/30 05:25:16;;;;;;;25.10;13.60;;;;;;;;;;4994022;28;93492;-66
2023/09/30 05:27:43;;;;;;;;;;;;;;;;;;4994834;28;91838;-66
2023/09/30 05:30:10;;;;;;;23.40;13.35;;;;;;;;;;5000798;28;122562;-65
2023/09/30 05:32:38;;;;;;;19.23;12.65;;;;;;;;;;4994078;28;92576;-66
2023/09/30 05:35:12;;;;;;;25.13;13.98;;;;;;;;;;4996461;28;95024;-66
2023/09/30 05:37:42;;;;;;;25.92;12.77;;;;;;;;;;4994039;28;94469;-65
2023/09/30 05:40:20;;;;;;;30.17;14.95;;;;;;;;;;4997260;28;92391;-66
2023/09/30 05:42:46;;;;;;;21.23;12.35;;;;;;;;;;4994735;28;93292;-65
2023/09/30 05:45:12;;;;;;;28.42;14.20;;;;;;;;;;4993617;28;93385;-66
2023/09/30 05:47:40;;;;;;;28.92;14.00;;;;;;;;;;4993888;28;92432;-65
2023/09/30 05:50:07;;;;;;;29.58;13.70;;;;;;;;;;4994325;28;93160;-65
2023/09/30 05:52:33;;;;;;;23.40;13.75;;;;;;;;;;4994286;28;92644;-66
2023/09/30 05:55:01;;;;;;;23.13;13.82;;;;;;;;;;4993440;28;92528;-65
2023/09/30 05:57:28;;;;;;;30.25;14.60;;;;;;;;;;4997192;28;93114;-66
2023/09/30 05:59:55;;;;;;;26.70;14.85;;;;;;;;;;4992665;28;95117;-65
2023/09/30 06:02:21;;;;;;;25.20;14.07;;;;;;;;;;4994114;28;95826;-65
2023/09/30 06:04:47;;;;;;;28.15;14.60;;;;;;;;;;4994126;28;93451;-63
2023/09/30 06:07:14;;;;;;;34.38;15.35;;;;;;;;;;4993483;28;92405;-64
2023/09/30 06:09:40;;;;;;;28.95;15.15;;;;;;;;;;4993197;28;93114;-63
2023/09/30 06:12:07;;;;;;;34.90;15.93;;;;;;;;;;4994061;28;93351;-64
2023/09/30 06:14:33;;;;;;;27.08;14.55;;;;;;;;;;4993528;28;92579;-63
2023/09/30 06:17:00;;;;;;;28.45;14.15;;;;;;;;;;4994356;28;94510;-63
2023/09/30 06:19:26;;;;;;;28.83;15.07;;;;;;;;;;4994756;28;93278;-64
2023/09/30 06:21:53;;;;;;;33.90;14.77;;;;;;;;;;4989993;28;92380;-64
2023/09/30 06:24:22;;;;;;;28.90;15.32;;;;;;;;;;4991718;28;95779;-63
2023/09/30 06:26:48;;;;;;;24.08;14.27;;;;;;;;;;4993811;28;92545;-63
2023/09/30 06:29:15;;;;;;;33.22;14.38;;;;;;;;;;4993408;28;93292;-64
2023/09/30 06:31:41;;;;;;;27.58;14.75;;;;;;;;;;4993708;28;94415;-63
2023/09/30 06:34:11;;;;;;;34.47;15.48;;;;;;;;;;4993024;28;92434;-63
2023/09/30 06:36:37;;;;;;;23.58;14.27;;;;;;;;;;4992945;28;93215;-63
2023/09/30 06:39:05;;;;;;;34.58;15.57;;;;;;;;;;4993410;28;93561;-63
2023/09/30 06:41:33;;;;;;;26.42;14.65;;;;;;;;;;4995653;28;91812;-63
2023/09/30 06:43:59;;;;;;;31.27;15.02;;;;;;;;;;4993115;28;93409;-63
2023/09/30 06:46:26;;;;;;;28.58;14.40;;;;;;;;;;4993909;28;92339;-63
2023/09/30 06:48:52;;;;;;;31.35;14.57;;;;;;;;;;4991270;28;94764;-63
2023/09/30 06:51:19;;;;;;;34.53;14.85;;;;;;;;;;4993449;28;94914;-64
2023/09/30 06:53:45;;;;;;;30.88;15.95;;;;;;;;;;4993162;28;92366;-64
2023/09/30 06:56:12;;;;;;;29.23;16.08;;;;;;;;;;4992709;28;93280;-64
2023/09/30 06:58:41;;;;;;;24.25;14.63;;;;;;;;;;4992945;28;93524;-63
2023/09/30 07:01:07;;;;;;;34.22;17.10;;;;;;;;;;4992829;28;92649;-64
2023/09/30 07:03:34;;;;;;;26.08;15.02;;;;;;;;;;4995287;28;93365;-64
2023/09/30 07:06:00;;;;;;;30.73;16.13;;;;;;;;;;4993693;28;91657;-64
2023/09/30 07:08:29;;;;;;;35.67;15.60;;;;;;;;;;4993304;28;92730;-64
2023/09/30 07:10:56;;;;;;;33.65;15.82;;;;;;;;;;4988909;28;93424;-63
2023/09/30 07:13:23;;;;;;;28.25;16.00;;;;;;;;;;4991072;28;94975;-63
2023/09/30 07:15:50;;;;;;;28.55;14.52;;;;;;;;;;4996575;28;95396;-64
2023/09/30 07:18:17;;;;;;;33.47;14.85;;;;;;;;;;4992713;28;94409;-63
2023/09/30 07:20:43;;;;;;;33.80;16.63;;;;;;;;;;4991979;28;92724;-63
2023/09/30 07:23:10;;;;;;;28.98;15.43;;;;;;;;;;4993043;28;93996;-63
2023/09/30 07:25:46;;;;;;;30.42;14.75;;;;;;;;;;4996010;28;93241;-63
2023/09/30 07:28:13;;;;;;;31.52;15.20;;;;;;;;;;4992631;28;94391;-64
2023/09/30 07:30:40;;;;;;;26.25;15.55;;;;;;;;;;4992440;28;92045;-63
2023/09/30 07:33:06;;;;;;;31.40;15.30;;;;;;;;;;4992903;28;92599;-63
2023/09/30 07:35:33;;;;;;;37.33;15.20;;;;;;;;;;4992011;28;93267;-64
2023/09/30 07:38:00;;;;;;;29.95;15.13;;;;;;;;;;4994998;28;96802;-63
2023/09/30 07:40:27;;;;;;;29.45;15.02;;;;;;;;;;4992794;28;92438;-63
2023/09/30 07:42:54;;;;;;;31.98;15.45;;;;;;;;;;4991878;28;93383;-63
2023/09/30 07:45:21;;;;;;;27.95;14.40;;;;;;;;;;4994537;28;94451;-63
2023/09/30 07:47:47;;;;;;;27.17;14.88;;;;;;;;;;4992525;28;93164;-64
2023/09/30 07:50:14;;;;;;;35.75;15.07;;;;;;;;;;4991954;28;93441;-64
2023/09/30 07:52:41;;;;;;;30.23;15.40;;;;;;;;;;4991767;28;92559;-63
2023/09/30 07:55:09;;;;;;;28.55;14.80;;;;;;;;;;4992545;28;93211;-63
2023/09/30 07:57:36;;;;;;;31.15;15.10;;;;;;;;;;4991746;28;94584;-63
2023/09/30 08:00:08;;;;;;;24.65;14.05;;;;;;;;;;4992791;28;92390;-63
2023/09/30 08:02:34;;;;;;;36.38;14.63;;;;;;;;;;4990587;28;94933;-63
2023/09/30 08:05:01;;;;;;;27.45;13.82;;;;;;;;;;4991844;28;94208;-63
2023/09/30 08:07:27;;;;;;;24.63;13.25;;;;;;;;;;4991537;28;92834;-63
2023/09/30 08:09:54;;;;;;;30.95;13.13;;;;;;;;;;4991955;28;93444;-63
2023/09/30 08:12:21;;;;;;;36.08;14.43;;;;;;;;;;4992634;28;92455;-63
2023/09/30 08:14:47;;;;;;;28.83;13.93;;;;;;;;;;4991532;28;93155;-63
2023/09/30 08:17:14;;;;;;;28.27;12.90;;;;;;;;;;4992502;28;93404;-63
2023/09/30 08:19:41;;;;;;;25.48;13.23;;;;;;;;;;4992016;28;91939;-63
2023/09/30 08:22:08;;;;;;;27.90;13.43;;;;;;;;;;4991125;28;92745;-63
2023/09/30 08:24:35;;;;;;;23.02;11.95;;;;;;;;;;4991475;28;93583;-63
2023/09/30 08:27:02;;;;;;;28.73;11.50;;;;;;;;;;4990253;28;94827;-66
2023/09/30 08:29:28;;;;;;;27.10;12.68;;;;;;;;;;4994890;28;99212;-66
2023/09/30 08:31:54;;;;;;;34.10;13.27;;;;;;;;;;4991634;28;92637;-66
2023/09/30 08:34:23;;;;;;;20.70;12.63;;;;;;;;;;4991391;28;93107;-66
2023/09/30 08:36:49;;;;;;;23.15;11.38;;;;;;;;;;4992083;28;94462;-66
2023/09/30 08:39:16;;;;;;;27.00;10.73;;;;;;;;;;4991378;28;92570;-66
2023/09/30 08:41:44;;;;;;;28.77;12.25;;;;;;;;;;4991188;28;93181;-66
2023/09/30 08:44:11;;;;;;;26.08;12.35;;;;;;;;;;4992394;28;93713;-65
2023/09/30 08:46:37;;;;;;;24.08;11.73;;;;;;;;;;4991865;28;92440;-66
2023/09/30 08:49:05;;;;;;;19.90;10.35;;;;;;;;;;4991221;28;93143;-66
2023/09/30 08:51:32;;;;;;;30.23;10.55;;;;;;;;;;4989647;28;96958;-66
2023/09/30 08:53:59;;;;;;;25.05;11.10;;;;;;;;;;4989580;28;95548;-66
2023/09/30 08:56:29;;;;;;;21.55;11.57;;;;;;;;;;4992034;28;93404;-65
2023/09/30 08:58:59;;;;;;;25.50;11.17;;;;;;;;;;4995265;28;92551;-65
2023/09/30 09:01:29;;;;;;;21.70;11.93;;;;;;;;;;4995552;28;93172;-65
2023/09/30 09:03:56;;;;;;;;;;;;;;;;;;4995324;28;93232;-65
2023/09/30 09:06:23;;;;;;;20.88;10.05;;;;;;;;;;4996214;28;120480;-65
2023/09/30 09:08:50;;;;;;;21.05;9.93;;;;;;;;;;4994359;28;93156;-65
2023/09/30 09:11:17;;;;;;;22.38;11.45;;;;;;;;;;4995115;28;93413;-66
2023/09/30 09:13:51;;;;;;;22.48;10.63;;;;;;;;;;4997217;28;92542;-65
2023/09/30 09:16:18;;;;;;;25.05;12.27;;;;;;;;;;4993049;28;94929;-64
2023/09/30 09:18:47;;;;;;;22.55;10.70;;;;;;;;;;4993929;28;92548;-65
2023/09/30 09:21:17;;;;;;;26.75;10.35;;;;;;;;;;4993999;28;92939;-65
2023/09/30 09:23:45;;;;;;;26.98;9.45;;;;;;;;;;4994316;28;93948;-65
2023/09/30 09:26:31;;;;;;;24.25;9.48;;;;;;;;;;4995419;28;92544;-65
2023/09/30 09:29:02;;;;;;;22.02;9.32;;;;;;;;;;4995513;28;93867;-65
2023/09/30 09:31:31;;;;;;;22.23;9.50;;;;;;;;;;4994433;28;94001;-64
2023/09/30 09:33:59;;;;;;;23.60;10.00;;;;;;;;;;4995824;28;92252;-65
2023/09/30 09:36:41;;;;;;;21.13;9.30;;;;;;;;;;4996984;28;92626;-65
2023/09/30 09:39:08;;;;;;;26.10;8.93;;;;;;;;;;4991821;28;92771;-65
2023/09/30 09:41:49;;;;;;;29.50;9.07;;;;;;;;;;4993268;28;94832;-65
2023/09/30 09:44:16;;;;;;;21.15;8.45;;;;;;;;;;4994138;28;93416;-65
2023/09/30 09:46:43;;;;;;;21.88;8.77;;;;;;;;;;4995652;28;92569;-65
2023/09/30 09:49:10;;;;;;;20.77;9.00;;;;;;;;;;4993796;28;94203;-65
2023/09/30 09:51:37;;;;;;;14.50;8.13;;;;;;;;;;4994110;28;93587;-66
2023/09/30 09:54:06;;;;;;;19.75;8.27;;;;;;;;;;4995462;28;92441;-66
2023/09/30 09:56:34;;;;;;;20.63;7.85;;;;;;;;;;4994165;28;93163;-66
2023/09/30 09:59:04;;;;;;;17.15;7.35;;;;;;;;;;4995288;28;91814;-66
2023/09/30 10:01:30;;;;;;;25.77;7.55;;;;;;;;;;4994650;28;92540;-65
2023/09/30 10:03:57;;;;;;;17.52;5.80;;;;;;;;;;4994043;28;93550;-66
2023/09/30 10:06:24;;;;;;;17.55;6.15;;;;;;;;;;4993462;28;94874;-65
2023/09/30 10:08:51;;;;;;;17.40;6.38;;;;;;;;;;4993120;28;95567;-66
2023/09/30 10:11:18;;;;;;;14.10;6.13;;;;;;;;;;4993575;28;92432;-66
2023/09/30 10:13:57;;;;;;;11.93;4.93;;;;;;;;;;4994464;28;92527;-66
2023/09/30 10:16:41;;;;;;;10.07;4.38;;;;;;;;;;4995174;28;94171;-66
2023/09/30 10:19:15;;;;;;;16.65;4.10;;;;;;;;;;4996881;28;93516;-66
2023/09/30 10:22:01;;;;;;;14.85;4.97;;;;;;;;;;4991021;28;93114;-66
2023/09/30 10:24:30;;;;;;;11.90;5.00;;;;;;;;;;4994034;28;92862;-66
2023/09/30 10:27:16;;;;;;;12.45;5.15;;;;;;;;;;4994334;28;92456;-66
2023/09/30 10:29:42;;;;;;;18.05;5.63;;;;;;;;;;4990675;28;92543;-66
2023/09/30 10:32:09;;;;;;;14.38;6.18;;;;;;;;;;4992219;28;96809;-66
2023/09/30 10:34:35;;;;;;;19.25;5.00;;;;;;;;;;4990492;28;92420;-66
2023/09/30 10:37:24;;;;;;;18.65;5.30;;;;;;;;;;4994122;28;94090;-66
2023/09/30 10:39:58;;;;;;;15.30;4.95;;;;;;;;;;4992064;28;93481;-66
2023/09/30 10:42:49;;;;;;;14.07;4.63;;;;;;;;;;4997208;28;92501;-66
2023/09/30 10:45:34;;;;;;;18.67;4.90;;;;;;;;;;4991663;28;92856;-66
2023/09/30 10:48:21;;;;;;;13.73;4.50;;;;;;;;;;4995032;28;92851;-64
2023/09/30 10:50:57;;;;;;;8.75;4.05;;;;;;;;;;4992533;28;93134;-64
2023/09/30 10:53:24;;;;;;;12.45;4.40;;;;;;;;;;4993373;28;93515;-64
2023/09/30 10:55:57;;;;;;;16.83;4.70;;;;;;;;;;4994135;28;92498;-63
2023/09/30 10:58:39;;;;;;;14.07;4.22;;;;;;;;;;4992386;28;94780;-63
2023/09/30 11:01:05;;;;;;;16.92;4.43;;;;;;;;;;4988429;28;93441;-64
2023/09/30 11:03:32;;;;;;;14.95;4.68;;;;;;;;;;4988359;28;92551;-64
2023/09/30 11:05:59;;;;;;;9.52;3.72;;;;;;;;;;4996235;28;93183;-63
2023/09/30 11:08:32;;;;;;;14.93;3.67;;;;;;;;;;4994062;28;92441;-64
2023/09/30 11:11:00;;;;;;;10.82;3.92;;;;;;;;;;4993416;28;93212;-63
2023/09/30 11:13:34;;;;;;;14.75;4.30;;;;;;;;;;4993687;28;93374;-63
2023/09/30 11:16:02;;;;;;;11.70;3.88;;;;;;;;;;4993755;28;91729;-64
2023/09/30 11:18:29;;;;;;;15.68;4.60;;;;;;;;;;4993065;28;92551;-63
2023/09/30 11:21:05;;;;;;;12.32;4.88;;;;;;;;;;4992753;28;94342;-63
2023/09/30 11:23:32;;;;;;;14.75;4.75;;;;;;;;;;4992208;28;94983;-63
2023/09/30 11:25:58;;;;;;;19.02;4.80;;;;;;;;;;4993624;28;96594;-63
2023/09/30 11:28:26;;;;;;;13.45;3.97;;;;;;;;;;4995888;28;93509;-64
2023/09/30 11:30:59;;;;;;;14.35;3.58;;;;;;;;;;4997649;28;93153;-63
2023/09/30 11:33:26;;;;;;;20.27;4.10;;;;;;;;;;4992466;28;92682;-64
2023/09/30 11:36:03;;;;;;;14.93;4.57;;;;;;;;;;4993470;28;92467;-64
2023/09/30 11:38:31;;;;;;;8.90;3.55;;;;;;;;;;4993411;28;94400;-64
2023/09/30 11:40:58;;;;;;;15.00;3.42;;;;;;;;;;4993666;28;92636;-63
2023/09/30 11:43:25;;;;;;;9.45;2.92;;;;;;;;;;4992627;28;92790;-63
2023/09/30 11:45:51;;;;;;;12.02;3.60;;;;;;;;;;4993039;28;92358;-64
2023/09/30 11:48:22;;;;;;;11.20;3.97;;;;;;;;;;4991964;28;96479;-64
2023/09/30 11:50:49;;;;;;;12.38;4.07;;;;;;;;;;4996576;28;92291;-63
2023/09/30 11:53:17;;;;;;;10.25;3.03;;;;;;;;;;4992647;28;94168;-63
2023/09/30 11:55:44;;;;;;;13.77;3.53;;;;;;;;;;4993213;28;93007;-64
2023/09/30 11:58:12;;;;;;;13.40;3.40;;;;;;;;;;4993238;28;93213;-63
2023/09/30 12:00:41;;;;;;;15.68;3.70;;;;;;;;;;4993633;28;93633;-63
2023/09/30 12:03:07;;;;;;;11.07;3.65;;;;;;;;;;4992213;28;92565;-64
2023/09/30 12:05:34;;;;;;;13.05;4.22;;;;;;;;;;4993857;28;94290;-63
2023/09/30 12:08:00;;;;;;;14.57;4.40;;;;;;;;;;4992510;28;93522;-63
2023/09/30 12:10:26;;;;;;;12.43;4.38;;;;;;;;;;4995697;28;92452;-63
2023/09/30 12:12:52;;;;;;;11.15;4.78;;;;;;;;;;4990156;28;95816;-63
2023/09/30 12:15:20;;;;;;;12.32;4.32;;;;;;;;;;4992707;28;92762;-64
2023/09/30 12:17:46;;;;;;;9.02;3.78;;;;;;;;;;4992801;28;93313;-64
2023/09/30 12:20:15;;;;;;;13.52;4.43;;;;;;;;;;4992102;28;93500;-64
2023/09/30 12:22:41;;;;;;;9.43;3.72;;;;;;;;;;4989293;28;92709;-64
2023/09/30 12:25:08;;;;;;;10.95;3.88;;;;;;;;;;4992244;28;94211;-63
2023/09/30 12:27:34;;;;;;;9.98;3.25;;;;;;;;;;4992822;28;94504;-64
2023/09/30 12:30:03;;;;;;;10.07;3.92;;;;;;;;;;4993491;28;91727;-63
2023/09/30 12:32:29;;;;;;;14.45;3.20;;;;;;;;;;4996686;28;92946;-63
2023/09/30 12:34:56;;;;;;;18.15;6.32;;;;;;;;;;4996325;28;92606;-64
2023/09/30 12:37:22;;;;;;;13.85;7.90;;;;;;;;;;4993830;28;95051;-64
2023/09/30 12:39:49;;;;;;;11.25;3.30;;;;;;;;;;4995095;28;93531;-64
2023/09/30 12:42:15;;;;;;;16.42;9.93;;;;;;;;;;4995940;28;92629;-64
2023/09/30 12:44:42;;;;;;;25.98;16.60;;;;;;;;;;4996584;28;93138;-63
2023/09/30 12:47:08;;;;;;;24.08;16.52;;;;;;;;;;4994785;28;93447;-63
2023/09/30 12:49:35;;;;;;;11.95;7.45;;;;;;;;;;4994372;28;92346;-61
2023/09/30 12:52:01;;;;;;;25.40;20.55;;;;;;;;;;4995943;28;92593;-61
2023/09/30 12:54:28;;;;;;;29.00;22.52;;;;;;;;;;4998008;28;92262;-61
2023/09/30 12:56:54;;;;;;;26.67;19.50;;;;;;;;;;4993988;28;92462;-62
2023/09/30 12:59:24;;;;;;;29.23;22.98;;;;;;;;;;4994928;28;96023;-61
2023/09/30 13:01:50;;;;;;;19.98;13.23;;;;;;;;;;4992800;28;94847;-61
2023/09/30 13:04:18;;;;;;;26.13;19.63;;;;;;;;;;4995186;28;96656;-62
2023/09/30 13:06:45;;;;;;;26.23;18.40;;;;;;;;;;4994800;28;93519;-62
2023/09/30 13:09:11;;;;;;;43.85;34.15;;;;;;;;;;4990804;28;92813;-61
2023/09/30 13:11:38;;;;;;;24.55;16.83;;;;;;;;;;4994938;28;94185;-61
2023/09/30 13:14:04;;;;;;;26.20;20.88;;;;;;;;;;4994126;28;94811;-62
2023/09/30 13:16:31;;;;;;;29.23;23.70;;;;;;;;;;4997797;28;92836;-61
2023/09/30 13:18:57;;;;;;;26.00;19.42;;;;;;;;;;4995719;28;93664;-62
2023/09/30 13:21:24;;;;;;;23.85;17.02;;;;;;;;;;4994375;28;92655;-62
2023/09/30 13:23:50;;;;;;;32.00;22.27;;;;;;;;;;4994084;28;93230;-61
2023/09/30 13:26:17;;;;;;;16.58;12.07;;;;;;;;;;4993139;28;95749;-62
2023/09/30 13:28:43;;;;;;;26.00;17.30;;;;;;;;;;4991036;28;92406;-62
2023/09/30 13:31:09;;;;;;;18.90;11.48;;;;;;;;;;4994309;28;93238;-62
2023/09/30 13:33:36;;;;;;;30.73;18.73;;;;;;;;;;4994140;28;94577;-62
2023/09/30 13:36:02;;;;;;;31.50;20.63;;;;;;;;;;4994180;28;93568;-62
2023/09/30 13:38:29;;;;;;;38.78;20.30;;;;;;;;;;4997256;28;93074;-62
2023/09/30 13:40:56;;;;;;;34.35;22.13;;;;;;;;;;4992998;28;92688;-62
2023/09/30 13:43:22;;;;;;;33.00;20.80;;;;;;;;;;4993406;28;94423;-62
2023/09/30 13:45:48;;;;;;;27.83;21.08;;;;;;;;;;4994330;28;93555;-63
2023/09/30 13:48:15;;;;;;;40.13;29.13;;;;;;;;;;4994545;28;92583;-62
2023/09/30 13:50:41;;;;;;;74.30;57.40;;;;;;;;;;4992277;28;94815;-62
2023/09/30 13:53:08;;;;;;;62.22;46.83;;;;;;;;;;4993277;28;93240;-62
2023/09/30 13:55:37;;;;;;;85.93;62.08;;;;;;;;;;4994675;28;92793;-62
2023/09/30 13:58:04;;;;;;;91.97;66.70;;;;;;;;;;4997061;28;94265;-62
2023/09/30 14:00:31;;;;;;;76.15;56.85;;;;;;;;;;4994477;28;92465;-62
2023/09/30 14:02:59;;;;;;;89.00;64.53;;;;;;;;;;4992285;28;94739;-62
2023/09/30 14:05:25;;;;;;;70.13;48.93;;;;;;;;;;4994132;28;94485;-62
2023/09/30 14:07:52;;;;;;;92.55;66.45;;;;;;;;;;4993935;28;91761;-62
2023/09/30 14:10:18;;;;;;;85.07;56.08;;;;;;;;;;4993650;28;92580;-62
2023/09/30 14:12:45;;;;;;;130.88;87.63;;;;;;;;;;4990649;28;92626;-62
2023/09/30 14:15:12;;;;;;;66.65;43.03;;;;;;;;;;4991873;28;94963;-62
2023/09/30 14:17:39;;;;;;;77.53;46.80;;;;;;;;;;4993983;28;95606;-65
2023/09/30 14:20:05;;;;;;;87.22;54.97;;;;;;;;;;4996901;28;94542;-65
2023/09/30 14:22:32;;;;;;;51.10;33.17;;;;;;;;;;4993255;28;93226;-65
2023/09/30 14:24:59;;;;;;;68.57;50.42;;;;;;;;;;4992825;28;93467;-65
2023/09/30 14:27:26;;;;;;;82.55;63.53;;;;;;;;;;4993561;28;92651;-65